This is the latest recevied weather packets stored in our database for station/object K4NSC-13. If no packets are shown the sender has not sent any weather packets the latest 10 day(s).
| Time | Temp. | Humidity | Pressure | Rain* | Wind** | Luminosity | Snow |
|---|---|---|---|---|---|---|---|
| 1778187921 | 24.44° C | 80% | 1008.9 hPa | 0 mm | - | 481 W/m² | - |
| 1778186124 | 24.44° C | 82% | 1009.1 hPa | 0 mm | - | 146 W/m² | - |
| 1778184322 | 25° C | 82% | 1009 hPa | 0 mm | - | 262 W/m² | - |
| 1778182517 | 25° C | 81% | 1008.8 hPa | 0 mm | - | 540 W/m² | - |
| 1778178917 | 23.33° C | 90% | 1009.3 hPa | 0 mm | - | 429 W/m² | - |
| 1778177726 | 22.22° C | 93% | 1009.3 hPa | 0 mm | - | 744 W/m² | - |
| 1778177147 | 22.22° C | 93% | 1009.3 hPa | 0 mm | - | 224 W/m² | - |
| 1778176527 | 22.22° C | 94% | 1009.5 hPa | 0 mm | - | 250 W/m² | - |
| 1778169329 | 20° C | 99% | 1010.5 hPa | 11.43 mm | - | 209 W/m² | - |
| 1778168729 | 20° C | 99% | 1010.6 hPa | 11.68 mm | - | 124 W/m² | - |
| 1778164549 | 20.56° C | 95% | 1009.9 hPa | 0 mm | - | 36 W/m² | - |
| 1778161530 | 20.56° C | 96% | 1010.5 hPa | 0 mm | - | 76 W/m² | - |
| 1778159131 | 20° C | 98% | 1010.9 hPa | 0 mm | - | 119 W/m² | - |
| 1778157931 | 20° C | 99% | 1010.1 hPa | 0 mm | - | 142 W/m² | - |
| 1778155531 | 19.44° C | 99% | 1010 hPa | 0.76 mm | - | 96 W/m² | - |
| 1778154932 | 19.44° C | 99% | 1009.9 hPa | 1.02 mm | - | 57 W/m² | - |
| 1778153752 | 19.44° C | 98% | 1010.9 hPa | 2.03 mm | - | 25 W/m² | - |
| 1778152532 | 19.44° C | 98% | 1012.1 hPa | 2.29 mm | - | 3 W/m² | - |
| 1778148318 | 19.44° C | 97% | 1011 hPa | 0.25 mm | - | 0 W/m² | - |
| 1778146519 | 20° C | 96% | 1011.8 hPa | 0.51 mm | - | 0 W/m² | - |
| 1778145319 | 20° C | 97% | 1011.7 hPa | 0.25 mm | - | 0 W/m² | - |
| 1778144158 | 19.44° C | 98% | 1011.9 hPa | 0 mm | - | 0 W/m² | - |
| 1778143518 | 19.44° C | 98% | 1011.6 hPa | 0 mm | - | 0 W/m² | - |
| 1778135720 | 19.44° C | 98% | 1011.6 hPa | 0 mm | - | 0 W/m² | - |
| 1778133961 | 19.44° C | 98% | 1011.3 hPa | 0 mm | - | 0 W/m² | - |
* Rain latest hour (hover to see other rain measurements)
** Current wind speed in m/s (hover to see current wind gust speed)